Airfield :
LOGIN :

Register | Disclaimer

   EN    FR    IT 

 










Legend :    VFR   Marginal VFR   IFR   Intensive IFR   Very Intensive IFR
Visi :
Ceiling :
>= 8 km
>= 3000ft
5 to 8 km
1000 to 3000 ft
1500m to 5 km
500 to 1000 ft
800 to 1500m
200 to 500 ft
< 800m
< 200 ft
Symbols :   Thunderstorms  Fog  Heavy snow  Heavy precipitations  Wind > 20 kt
SIGMETs :     Misc.  Thunderstorms  Icing  Turbulence  Mountain Waves  Volcanic Ashes






- Airport Elevation : 171 ft
- IATA code : EGC


LFBE - Bergerac

CURRENT METAR :
  • 300430Z AUTO 10003KT 060V130 9999 OVC004 05/05 Q1020

EXPIRED METARs :
  • 300400Z AUTO 08004KT 7000 OVC003 05/05 Q1020
  • 300330Z AUTO 07006KT 040V100 4800 BR VV/// 05/05 Q1020
  • 300230Z AUTO 07005KT 1100 1000 R27/1300U BR VV/// 06/06 Q1020
  • 300200Z AUTO 00000KT 0500 R27/0600N FG VV/// 06/06 Q1020

TAF TAF LFBE
Valid from the 29 at 18:00 until the 30 at 18:00 UTC


291700Z 2918/3018 23004KT 7000 SCT010
TEMPO 2918/2924 0700 BCFG BKN008
BECMG 3000/3002 1500 MIFG
PROB40
TEMPO 3000/3009 0400 FG VV///
BECMG 3009/3011 7000 NSW BKN010
BECMG 3012/3014 SCT015



MET'MAP, your aeronautical weather chart ! - Copyright ORBIFLY December 2007 - Disclaimer

ORBIFLY MET'MAP TEAM :

Programming & Development : Alexandra Zaïnal
Original concept : Baudouin d'Aumeries
Technical & hardware support : Manuel Goepfert
Assistance : Marc-Olivier Méhu




SOURCES & CREDITS :

   NOAA